Time;durP1;ratioP1;P1;durP2;ratioP2;P2;SDS_P1;SDS_P2;PMS_P1;PMS_P2;Temp;Humidity;BMP_temperature;BMP_pressure;BME280_temperature;BME280_humidity;BME280_pressure;Samples;Min_cycle;Max_cycle;Signal;HPM_P1;HPM_P2
2023/09/18 00:00:11;;;;;;;2.70;2.50;;;;;24.30;99636.00;;;;2590400;22;20234;-61
2023/09/18 00:01:11;;;;;;;2.78;2.53;;;;;24.20;99628.00;;;;2572820;22;20646;-62
2023/09/18 00:02:12;;;;;;;2.37;2.17;;;;;24.20;99630.00;;;;2574854;23;21394;-61
2023/09/18 00:03:12;;;;;;;2.83;2.60;;;;;24.20;99634.00;;;;2577161;23;20695;-61
2023/09/18 00:04:12;;;;;;;2.93;2.70;;;;;24.20;99625.00;;;;2588990;22;20267;-61
2023/09/18 00:05:15;;;;;;;3.20;2.90;;;;;24.20;99626.00;;;;2590203;22;20200;-62
2023/09/18 00:06:16;;;;;;;2.80;2.60;;;;;24.20;99625.00;;;;2560831;23;20659;-62
2023/09/18 00:07:16;;;;;;;2.67;2.47;;;;;24.20;99624.00;;;;2571891;22;20254;-61
2023/09/18 00:08:17;;;;;;;2.70;2.50;;;;;24.20;99628.00;;;;2589491;22;20196;-62
2023/09/18 00:09:17;;;;;;;2.90;2.70;;;;;24.20;99624.00;;;;2589192;22;20257;-61
2023/09/18 00:10:17;;;;;;;2.70;2.50;;;;;24.30;99622.00;;;;2590019;22;20285;-61
2023/09/18 00:11:18;;;;;;;2.40;2.20;;;;;24.30;99623.00;;;;2575344;22;20200;-62
2023/09/18 00:12:18;;;;;;;2.40;2.20;;;;;24.30;99625.00;;;;2587286;22;20195;-61
2023/09/18 00:13:19;;;;;;;2.70;2.50;;;;;24.20;99618.00;;;;2588390;22;20202;-61
2023/09/18 00:14:19;;;;;;;2.40;2.20;;;;;24.20;99616.00;;;;2570565;23;20260;-61
2023/09/18 00:15:20;;;;;;;3.90;2.90;;;;;24.20;99616.00;;;;2564704;23;20251;-61
2023/09/18 00:16:20;;;;;;;2.60;2.40;;;;;24.20;99616.00;;;;2562227;22;20259;-61
2023/09/18 00:17:22;;;;;;;2.67;2.47;;;;;24.20;99615.00;;;;2590585;22;20203;-61
2023/09/18 00:18:23;;;;;;;2.80;2.60;;;;;24.20;99618.00;;;;2573651;23;20196;-61
2023/09/18 00:19:24;;;;;;;2.43;2.23;;;;;24.20;99621.00;;;;2563977;23;20201;-61
2023/09/18 00:20:26;;;;;;;2.67;2.47;;;;;24.20;99611.00;;;;2556744;23;20244;-61
2023/09/18 00:21:27;;;;;;;2.65;2.45;;;;;24.20;99619.00;;;;2561014;22;20442;-60
2023/09/18 00:22:28;;;;;;;2.70;2.50;;;;;24.20;99609.00;;;;2565574;23;20200;-61
2023/09/18 00:23:28;;;;;;;2.58;2.38;;;;;24.20;99606.00;;;;2564226;22;20232;-60
2023/09/18 00:24:29;;;;;;;2.80;2.60;;;;;24.20;99599.00;;;;2590715;22;20527;-61
2023/09/18 00:25:30;;;;;;;2.57;2.37;;;;;24.20;99616.00;;;;2589043;22;20199;-61
2023/09/18 00:26:31;;;;;;;2.85;2.65;;;;;24.20;99604.00;;;;2575989;22;20377;-61
2023/09/18 00:27:32;;;;;;;2.80;2.50;;;;;24.20;99594.00;;;;2589399;22;20196;-61
2023/09/18 00:28:32;;;;;;;2.55;2.35;;;;;24.20;99598.00;;;;2577837;23;20254;-61
2023/09/18 00:29:33;;;;;;;2.50;2.30;;;;;24.20;99600.00;;;;2576693;22;20650;-61
2023/09/18 00:30:33;;;;;;;3.80;2.60;;;;;24.20;99600.00;;;;2586669;22;20724;-61
2023/09/18 00:31:33;;;;;;;2.57;2.37;;;;;24.20;99594.00;;;;2562387;22;20536;-61
2023/09/18 00:32:34;;;;;;;2.33;2.13;;;;;24.20;99591.00;;;;2560450;23;20200;-61
2023/09/18 00:33:34;;;;;;;2.60;2.40;;;;;24.20;99610.00;;;;2577567;23;20680;-61
2023/09/18 00:34:34;;;;;;;2.40;2.20;;;;;24.20;99648.00;;;;2590160;22;20676;-61
2023/09/18 00:35:35;;;;;;;2.57;2.37;;;;;24.20;99591.00;;;;2585748;22;20657;-60
2023/09/18 00:36:35;;;;;;;2.20;2.00;;;;;24.20;99579.00;;;;2575556;22;20569;-61
2023/09/18 00:37:37;;;;;;;2.70;2.50;;;;;24.20;99580.00;;;;2580029;22;20532;-61
2023/09/18 00:38:37;;;;;;;2.88;2.50;;;;;24.20;99583.00;;;;2590507;22;20195;-60
2023/09/18 00:39:38;;;;;;;2.50;2.30;;;;;24.20;99571.00;;;;2572545;22;20300;-61
2023/09/18 00:40:39;;;;;;;2.60;2.40;;;;;24.20;99567.00;;;;2584403;22;20246;-61
2023/09/18 00:41:39;;;;;;;2.50;2.30;;;;;24.20;99573.00;;;;2575431;22;20576;-61
2023/09/18 00:42:39;;;;;;;2.57;2.37;;;;;24.20;99570.00;;;;2591299;22;20207;-61
2023/09/18 00:43:40;;;;;;;2.80;2.60;;;;;24.20;99566.00;;;;2591102;22;20376;-61
2023/09/18 00:44:41;;;;;;;2.53;2.33;;;;;24.20;99560.00;;;;2573289;23;20211;-61
2023/09/18 00:45:45;;;;;;;2.45;2.25;;;;;24.20;99553.00;;;;2577952;22;20207;-61
2023/09/18 00:46:45;;;;;;;2.30;2.10;;;;;24.20;99552.00;;;;2562045;23;20196;-62
2023/09/18 00:47:46;;;;;;;2.90;2.70;;;;;24.20;99560.00;;;;2562419;23;20193;-61
2023/09/18 00:48:46;;;;;;;2.90;2.70;;;;;24.20;99557.00;;;;2563673;23;20200;-62
2023/09/18 00:49:47;;;;;;;2.53;2.33;;;;;24.20;99542.00;;;;2561482;23;21016;-62
2023/09/18 00:50:48;;;;;;;2.60;2.40;;;;;24.20;99545.00;;;;2577019;23;20249;-60
2023/09/18 00:51:49;;;;;;;2.60;2.40;;;;;24.20;99550.00;;;;2547807;23;20882;-61
2023/09/18 00:52:49;;;;;;;2.70;2.50;;;;;24.20;99554.00;;;;2560904;23;20193;-62
2023/09/18 00:53:50;;;;;;;3.00;2.77;;;;;24.20;99547.00;;;;2564617;23;20212;-62
2023/09/18 00:54:50;;;;;;;2.50;2.30;;;;;24.20;99542.00;;;;2577430;23;20424;-60
2023/09/18 00:55:52;;;;;;;2.60;2.40;;;;;24.20;99553.00;;;;2577262;23;20610;-61
2023/09/18 00:56:53;;;;;;;2.45;2.25;;;;;24.20;99543.00;;;;2536984;23;20200;-61
2023/09/18 00:57:55;;;;;;;2.72;2.53;;;;;24.20;99538.00;;;;2551944;23;20968;-61
2023/09/18 00:58:55;;;;;;;3.67;3.08;;;;;24.20;99552.00;;;;2548213;23;20529;-61
2023/09/18 00:59:56;;;;;;;2.60;2.40;;;;;24.30;99552.00;;;;2565056;23;20292;-59
2023/09/18 01:00:56;;;;;;;2.97;2.77;;;;;24.20;99533.00;;;;2562422;23;20199;-60
2023/09/18 01:01:56;;;;;;;2.93;2.43;;;;;24.20;99535.00;;;;2577390;22;20216;-61
2023/09/18 01:02:57;;;;;;;2.60;2.40;;;;;24.20;99535.00;;;;2562958;23;20196;-61
2023/09/18 01:03:57;;;;;;;2.60;2.40;;;;;24.20;99527.00;;;;2564322;23;20247;-61
2023/09/18 01:04:57;;;;;;;3.33;3.03;;;;;24.20;99600.00;;;;2552530;23;20186;-62
2023/09/18 01:05:58;;;;;;;2.50;2.30;;;;;24.20;99528.00;;;;2545620;23;20189;-61
2023/09/18 01:07:04;;;;;;;2.37;2.17;;;;;24.20;99523.00;;;;2562373;23;20598;-61
2023/09/18 01:08:05;;;;;;;2.80;2.60;;;;;24.20;99534.00;;;;2562986;22;20222;-62
2023/09/18 01:09:12;;;;;;;2.60;2.40;;;;;24.20;99526.00;;;;2590274;22;20245;-61
2023/09/18 01:10:16;;;;;;;2.70;2.50;;;;;24.20;99530.00;;;;2577739;23;20430;-62
2023/09/18 01:11:23;;;;;;;2.90;2.70;;;;;24.20;99520.00;;;;2552536;22;20204;-60
2023/09/18 01:12:36;;;;;;;2.47;2.28;;;;;24.20;99507.00;;;;2580389;22;20203;-61
2023/09/18 01:13:38;;;;;;;2.80;2.60;;;;;24.20;99511.00;;;;2564882;23;20212;-61
2023/09/18 01:14:45;;;;;;;2.97;2.67;;;;;24.20;99521.00;;;;2553852;23;21022;-61
2023/09/18 01:15:54;;;;;;;2.80;2.60;;;;;24.20;99526.00;;;;2577903;22;20757;-60
2023/09/18 01:16:57;;;;;;;2.60;2.40;;;;;24.20;99517.00;;;;2577663;23;20196;-61
2023/09/18 01:17:58;;;;;;;2.35;2.15;;;;;24.20;99517.00;;;;2579086;22;20267;-61
2023/09/18 01:18:58;;;;;;;2.20;2.00;;;;;24.20;99522.00;;;;2564405;23;20200;-61
2023/09/18 01:19:59;;;;;;;3.00;2.80;;;;;24.20;99523.00;;;;2564832;23;20205;-60
2023/09/18 01:20:59;;;;;;;2.50;2.30;;;;;24.20;99516.00;;;;2575740;22;20294;-60
2023/09/18 01:21:59;;;;;;;3.23;2.40;;;;;24.20;99520.00;;;;2591459;22;20203;-60
2023/09/18 01:23:00;;;;;;;2.40;2.20;;;;;24.20;99517.00;;;;2588813;22;20192;-60
2023/09/18 01:24:00;;;;;;;2.83;2.63;;;;;24.20;99520.00;;;;2575867;23;20196;-61
2023/09/18 01:25:00;;;;;;;2.83;2.63;;;;;24.20;99530.00;;;;2576383;23;20674;-60
2023/09/18 01:26:00;;;;;;;2.50;2.30;;;;;24.20;99455.00;;;;2575199;22;20896;-64
2023/09/18 01:27:01;;;;;;;2.60;2.40;;;;;24.20;99520.00;;;;2578022;23;21071;-62
2023/09/18 01:28:02;;;;;;;3.60;2.60;;;;;24.20;99521.00;;;;2577532;23;20587;-61
2023/09/18 01:29:02;;;;;;;2.80;2.50;;;;;24.20;99511.00;;;;2590101;22;20309;-61
2023/09/18 01:30:04;;;;;;;2.65;2.45;;;;;24.20;99510.00;;;;2590468;22;20234;-59
2023/09/18 01:31:05;;;;;;;3.00;2.40;;;;;24.20;99512.00;;;;2563353;23;20835;-61
2023/09/18 01:32:05;;;;;;;3.77;2.40;;;;;24.20;99518.00;;;;2577796;22;20933;-61
2023/09/18 01:33:06;;;;;;;2.70;2.50;;;;;24.20;99573.00;;;;2590231;22;20202;-62
2023/09/18 01:34:06;;;;;;;2.70;2.50;;;;;24.20;99507.00;;;;2573492;23;20192;-61
2023/09/18 01:35:08;;;;;;;2.80;2.60;;;;;24.20;99509.00;;;;2564467;23;20197;-61
2023/09/18 01:36:08;;;;;;;3.90;2.05;;;;;24.20;99499.00;;;;2560304;22;20191;-60
2023/09/18 01:37:09;;;;;;;2.93;2.70;;;;;24.20;99480.00;;;;2577288;22;20226;-61
2023/09/18 01:38:11;;;;;;;3.00;2.70;;;;;24.20;99493.00;;;;2564836;23;20564;-61
2023/09/18 01:39:11;;;;;;;2.53;2.33;;;;;24.20;99499.00;;;;2562897;23;20890;-61
2023/09/18 01:40:11;;;;;;;2.67;2.47;;;;;24.20;99494.00;;;;2540606;23;20202;-61
2023/09/18 01:41:12;;;;;;;2.73;2.53;;;;;24.20;99501.00;;;;2538987;23;20203;-61
2023/09/18 01:42:12;;;;;;;3.57;2.80;;;;;24.20;99532.00;;;;2563509;23;20185;-62
2023/09/18 01:43:12;;;;;;;2.77;2.57;;;;;24.20;99503.00;;;;2565634;22;20556;-60
2023/09/18 01:44:13;;;;;;;2.30;2.10;;;;;24.20;99493.00;;;;2552490;23;20604;-61
2023/09/18 01:45:13;;;;;;;2.83;2.63;;;;;24.20;99495.00;;;;2540094;23;20512;-61
2023/09/18 01:46:14;;;;;;;2.33;2.10;;;;;24.20;99468.00;;;;2546752;23;20537;-61
2023/09/18 01:47:16;;;;;;;3.20;2.90;;;;;24.20;99492.00;;;;2563013;23;20749;-61
2023/09/18 01:48:17;;;;;;;2.90;2.70;;;;;24.20;99498.00;;;;2540975;23;20289;-60
2023/09/18 01:49:32;;;;;;;3.00;2.70;;;;;24.20;99479.00;;;;2551719;23;20205;-61
2023/09/18 01:50:32;;;;;;;2.60;2.40;;;;;24.20;99489.00;;;;2568682;23;20193;-62
2023/09/18 01:51:33;;;;;;;2.50;2.30;;;;;24.20;99485.00;;;;2563756;22;20200;-60
2023/09/18 01:52:36;;;;;;;2.80;2.60;;;;;24.20;99477.00;;;;2591183;22;20192;-61
2023/09/18 01:53:36;;;;;;;2.80;2.60;;;;;24.20;99474.00;;;;2558991;23;20500;-61
2023/09/18 01:54:36;;;;;;;2.40;2.20;;;;;24.20;99474.00;;;;2565239;23;20210;-62
2023/09/18 01:55:37;;;;;;;3.00;2.73;;;;;24.20;99471.00;;;;2565448;23;20270;-62
2023/09/18 01:56:37;;;;;;;2.80;2.60;;;;;24.20;99469.00;;;;2562323;22;20230;-60
2023/09/18 01:57:37;;;;;;;2.60;2.40;;;;;24.20;99472.00;;;;2590802;22;20203;-61
2023/09/18 01:58:38;;;;;;;2.70;2.50;;;;;24.20;99470.00;;;;2576524;23;20201;-61
2023/09/18 01:59:38;;;;;;;3.20;2.77;;;;;24.20;99471.00;;;;2563896;23;20227;-61
2023/09/18 02:00:39;;;;;;;2.37;2.17;;;;;24.20;99467.00;;;;2575857;23;20200;-62
2023/09/18 02:01:39;;;;;;;2.37;2.17;;;;;23.60;99467.00;;;;2576007;22;20203;-61
2023/09/18 02:02:40;;;;;;;2.27;2.07;;;;;24.20;99461.00;;;;2590824;22;20198;-60
2023/09/18 02:03:41;;;;;;;2.57;2.37;;;;;24.20;99455.00;;;;2590541;22;20195;-61
2023/09/18 02:04:41;;;;;;;2.80;2.60;;;;;24.20;99466.00;;;;2577865;23;20512;-61
2023/09/18 02:05:42;;;;;;;2.33;2.13;;;;;24.20;99459.00;;;;2564469;23;21010;-61
2023/09/18 02:06:43;;;;;;;2.60;2.33;;;;;24.20;99462.00;;;;2563144;23;20251;-61
2023/09/18 02:07:43;;;;;;;2.67;2.47;;;;;24.20;99454.00;;;;2590441;22;20660;-61
2023/09/18 02:08:43;;;;;;;2.43;2.00;;;;;24.20;99461.00;;;;2575135;23;20188;-62
2023/09/18 02:09:44;;;;;;;3.20;2.90;;;;;24.20;99448.00;;;;2577860;23;20266;-61
2023/09/18 02:10:44;;;;;;;2.80;2.50;;;;;24.20;99459.00;;;;2576557;23;20234;-61
2023/09/18 02:11:46;;;;;;;3.17;2.97;;;;;24.20;99451.00;;;;2550735;23;20918;-61
2023/09/18 02:12:46;;;;;;;2.63;2.42;;;;;24.20;99455.00;;;;2574384;22;20258;-60
2023/09/18 02:13:46;;;;;;;2.53;2.33;;;;;24.20;99452.00;;;;2591239;22;20545;-62
2023/09/18 02:14:47;;;;;;;2.50;2.30;;;;;24.20;99453.00;;;;2588934;22;20522;-61
2023/09/18 02:15:47;;;;;;;2.53;2.33;;;;;24.20;99450.00;;;;2577893;23;20196;-62
2023/09/18 02:16:49;;;;;;;2.93;2.63;;;;;24.20;99447.00;;;;2559404;23;20196;-61
2023/09/18 02:17:49;;;;;;;2.47;2.28;;;;;24.20;99441.00;;;;2590556;22;20207;-61
2023/09/18 02:18:50;;;;;;;3.00;2.20;;;;;24.20;99441.00;;;;2576171;23;20203;-61
2023/09/18 02:19:50;;;;;;;2.63;2.43;;;;;24.20;99437.00;;;;2563494;23;20197;-60
2023/09/18 02:20:51;;;;;;;3.23;2.73;;;;;24.20;99437.00;;;;2577773;23;20435;-60
2023/09/18 02:21:51;;;;;;;2.80;2.60;;;;;24.20;99442.00;;;;2574803;22;20195;-61
2023/09/18 02:22:51;;;;;;;2.40;2.20;;;;;24.20;99440.00;;;;2577548;23;20211;-61
2023/09/18 02:23:52;;;;;;;2.63;2.43;;;;;24.20;99435.00;;;;2577592;23;20940;-62
2023/09/18 02:24:53;;;;;;;2.70;2.50;;;;;24.20;99437.00;;;;2562671;23;20651;-60
2023/09/18 02:25:59;;;;;;;3.20;3.00;;;;;24.20;99443.00;;;;2552971;23;20485;-60
2023/09/18 02:26:59;;;;;;;3.17;2.75;;;;;24.20;99433.00;;;;2590593;22;20195;-61
2023/09/18 02:28:00;;;;;;;2.70;2.50;;;;;24.20;99435.00;;;;2591141;22;20206;-62
2023/09/18 02:29:03;;;;;;;2.60;2.40;;;;;24.20;99419.00;;;;2589836;22;20202;-61
2023/09/18 02:30:04;;;;;;;2.70;2.50;;;;;24.20;99421.00;;;;2576057;23;20604;-62
2023/09/18 02:31:05;;;;;;;2.83;2.63;;;;;24.20;99428.00;;;;2562035;22;20200;-61
2023/09/18 02:32:05;;;;;;;2.73;2.53;;;;;24.20;99420.00;;;;2587285;22;20567;-60
2023/09/18 02:33:05;;;;;;;2.70;2.50;;;;;24.20;99418.00;;;;2588141;22;20188;-61
2023/09/18 02:34:07;;;;;;;3.00;2.80;;;;;24.20;99414.00;;;;2577151;23;20215;-61
2023/09/18 02:35:07;;;;;;;2.70;2.50;;;;;24.20;99412.00;;;;2576476;22;20193;-61
2023/09/18 02:36:07;;;;;;;2.77;2.50;;;;;24.20;99412.00;;;;2562950;23;21125;-60
2023/09/18 02:37:08;;;;;;;2.17;1.97;;;;;24.20;99411.00;;;;2575688;23;20246;-69
2023/09/18 02:38:08;;;;;;;2.87;2.57;;;;;24.20;99427.00;;;;2590568;22;20218;-61
2023/09/18 02:39:08;;;;;;;3.20;2.90;;;;;24.20;99404.00;;;;2589658;22;20205;-61
2023/09/18 02:40:09;;;;;;;2.60;2.37;;;;;24.20;99400.00;;;;2591350;22;20688;-61
2023/09/18 02:41:10;;;;;;;3.00;2.43;;;;;24.20;99389.00;;;;2575627;22;20712;-60
2023/09/18 02:42:10;;;;;;;2.50;2.30;;;;;24.20;99406.00;;;;2577019;23;20200;-60
2023/09/18 02:43:10;;;;;;;3.03;2.50;;;;;24.20;99386.00;;;;2577282;23;20192;-61
2023/09/18 02:44:11;;;;;;;2.57;2.37;;;;;24.20;99388.00;;;;2591186;22;20634;-61
2023/09/18 02:45:11;;;;;;;2.87;2.60;;;;;24.20;99392.00;;;;2590607;22;21086;-61
2023/09/18 02:46:11;;;;;;;3.00;2.77;;;;;24.20;99383.00;;;;2562646;23;20675;-60
2023/09/18 02:47:12;;;;;;;2.47;2.27;;;;;24.20;99384.00;;;;2563401;23;20200;-60
2023/09/18 02:48:12;;;;;;;2.73;2.13;;;;;24.20;99382.00;;;;2577058;23;20219;-60
2023/09/18 02:49:12;;;;;;;2.70;2.50;;;;;24.20;99374.00;;;;2590487;22;20195;-60
2023/09/18 02:50:13;;;;;;;2.63;2.43;;;;;24.20;99383.00;;;;2589309;22;20184;-61
2023/09/18 02:51:13;;;;;;;2.93;2.73;;;;;24.20;99368.00;;;;2571217;22;20192;-61
2023/09/18 02:52:13;;;;;;;2.53;2.33;;;;;23.80;99366.00;;;;2591406;22;20222;-62
2023/09/18 02:53:21;;;;;;;2.67;2.40;;;;;24.20;99359.00;;;;2575518;23;20192;-61
2023/09/18 02:54:21;;;;;;;2.95;2.75;;;;;24.20;99367.00;;;;2566572;23;20279;-61
2023/09/18 02:55:21;;;;;;;2.87;2.20;;;;;24.20;99363.00;;;;2576022;22;20204;-61
2023/09/18 02:56:22;;;;;;;2.87;2.67;;;;;24.20;99360.00;;;;2576311;22;20203;-61
2023/09/18 02:57:22;;;;;;;2.30;2.10;;;;;24.20;99369.00;;;;2576901;23;20602;-60
2023/09/18 02:58:25;;;;;;;2.60;2.40;;;;;24.20;99376.00;;;;2577530;23;20196;-61
2023/09/18 02:59:26;;;;;;;2.60;2.40;;;;;24.20;99380.00;;;;2590034;22;20265;-61
2023/09/18 03:00:26;;;;;;;2.97;2.60;;;;;24.20;99384.00;;;;2589964;22;20593;-62
2023/09/18 03:01:26;;;;;;;2.70;2.50;;;;;23.60;99386.00;;;;2575991;22;20191;-61
2023/09/18 03:02:27;;;;;;;2.77;2.57;;;;;24.20;99386.00;;;;2590405;22;20191;-61
2023/09/18 03:03:27;;;;;;;2.43;2.23;;;;;24.20;99376.00;;;;2577676;23;20195;-61
2023/09/18 03:04:29;;;;;;;2.50;2.30;;;;;24.20;99461.00;;;;2577674;23;20219;-61
2023/09/18 03:05:31;;;;;;;3.05;2.85;;;;;24.20;99376.00;;;;2577465;23;20211;-61
2023/09/18 03:06:31;;;;;;;2.67;2.47;;;;;24.20;99356.00;;;;2550409;23;20204;-61
2023/09/18 03:07:32;;;;;;;2.73;2.53;;;;;24.20;99367.00;;;;2564104;23;20200;-61
2023/09/18 03:08:32;;;;;;;2.80;2.37;;;;;24.20;99362.00;;;;2577319;23;20196;-61
2023/09/18 03:09:32;;;;;;;2.77;2.57;;;;;24.20;99357.00;;;;2575769;23;20188;-62
2023/09/18 03:10:34;;;;;;;2.43;2.23;;;;;24.20;99346.00;;;;2565122;23;20220;-62
2023/09/18 03:11:34;;;;;;;2.85;2.50;;;;;24.20;99351.00;;;;2550556;23;20271;-61
2023/09/18 03:12:35;;;;;;;2.83;2.60;;;;;24.20;99354.00;;;;2575751;22;20234;-61
2023/09/18 03:13:35;;;;;;;2.50;2.30;;;;;24.20;99358.00;;;;2590954;22;20202;-61
2023/09/18 03:14:35;;;;;;;2.70;2.50;;;;;24.20;99351.00;;;;2590607;22;20198;-60
2023/09/18 03:15:36;;;;;;;2.60;2.40;;;;;24.20;99350.00;;;;2590806;22;20214;-61
2023/09/18 03:16:37;;;;;;;2.95;2.70;;;;;24.20;99353.00;;;;2557286;23;20215;-61
2023/09/18 03:17:37;;;;;;;2.67;2.47;;;;;24.20;99356.00;;;;2575408;22;20198;-61
2023/09/18 03:18:38;;;;;;;3.30;2.50;;;;;24.20;99366.00;;;;2572819;23;20227;-60
2023/09/18 03:19:38;;;;;;;2.87;2.57;;;;;24.20;99349.00;;;;2558828;23;20931;-61
2023/09/18 03:20:38;;;;;;;3.40;3.10;;;;;24.20;99353.00;;;;2574172;23;20784;-61
2023/09/18 03:21:39;;;;;;;2.83;2.53;;;;;24.20;99348.00;;;;2547985;23;20722;-61
2023/09/18 03:22:39;;;;;;;2.53;2.33;;;;;24.20;99343.00;;;;2565245;23;20618;-61
2023/09/18 03:23:39;;;;;;;2.83;2.63;;;;;24.20;99340.00;;;;2584846;22;20261;-62
2023/09/18 03:24:40;;;;;;;2.90;2.70;;;;;24.20;99284.00;;;;2591079;22;20201;-61
2023/09/18 03:25:40;;;;;;;3.23;2.40;;;;;24.20;99332.00;;;;2577484;23;20192;-60
2023/09/18 03:26:40;;;;;;;2.80;2.60;;;;;24.20;99328.00;;;;2560822;23;20192;-61
2023/09/18 03:27:41;;;;;;;2.93;2.20;;;;;24.20;99327.00;;;;2590779;22;20278;-62
2023/09/18 03:28:41;;;;;;;2.93;2.60;;;;;24.20;99333.00;;;;2582567;22;20195;-61
2023/09/18 03:29:41;;;;;;;2.40;2.20;;;;;24.20;99326.00;;;;2563509;23;20203;-61
2023/09/18 03:30:42;;;;;;;2.60;2.40;;;;;24.20;99326.00;;;;2577279;23;20215;-61
2023/09/18 03:31:42;;;;;;;2.93;2.73;;;;;24.20;99331.00;;;;2572875;22;20200;-62
2023/09/18 03:32:42;;;;;;;2.30;2.10;;;;;24.20;99329.00;;;;2589756;22;20211;-60
2023/09/18 03:33:43;;;;;;;3.40;2.90;;;;;24.20;99320.00;;;;2590490;22;20195;-61
2023/09/18 03:34:43;;;;;;;2.80;2.60;;;;;24.20;99326.00;;;;2584200;22;20226;-64
2023/09/18 03:35:50;;;;;;;2.27;2.10;;;;;24.20;99326.00;;;;2589202;22;20254;-64
2023/09/18 03:36:51;;;;;;;2.80;2.60;;;;;24.20;99320.00;;;;2576219;22;20199;-60
2023/09/18 03:37:53;;;;;;;3.10;2.80;;;;;24.20;99316.00;;;;2576850;23;20701;-61
2023/09/18 03:38:54;;;;;;;3.20;2.42;;;;;24.20;99315.00;;;;2564242;23;20192;-62
2023/09/18 03:39:54;;;;;;;2.47;2.27;;;;;24.20;99320.00;;;;2576031;22;20589;-62
2023/09/18 03:40:54;;;;;;;2.57;2.37;;;;;24.20;99316.00;;;;2573459;22;20199;-63
2023/09/18 03:41:55;;;;;;;2.67;2.47;;;;;24.20;99312.00;;;;2585381;22;20195;-62
2023/09/18 03:42:55;;;;;;;2.67;2.47;;;;;24.20;99312.00;;;;2590629;22;20192;-60
2023/09/18 03:43:55;;;;;;;3.30;3.00;;;;;24.20;99308.00;;;;2588198;22;20211;-61
2023/09/18 03:44:56;;;;;;;2.60;2.40;;;;;24.20;99318.00;;;;2577142;23;20196;-61
2023/09/18 03:46:05;;;;;;;2.60;2.40;;;;;24.20;99313.00;;;;2562542;23;20214;-61
2023/09/18 03:47:06;;;;;;;3.10;2.70;;;;;24.20;99310.00;;;;2576908;23;20631;-61
2023/09/18 03:48:06;;;;;;;3.10;2.90;;;;;24.20;99294.00;;;;2577727;22;20219;-61
2023/09/18 03:49:07;;;;;;;2.30;2.10;;;;;24.20;99305.00;;;;2576775;23;20188;-61
2023/09/18 03:50:08;;;;;;;3.00;2.70;;;;;24.20;99298.00;;;;2576814;22;20642;-60
2023/09/18 03:51:15;;;;;;;3.13;2.83;;;;;24.20;99305.00;;;;2573921;22;20430;-61
2023/09/18 03:52:15;;;;;;;2.60;2.40;;;;;23.80;99286.00;;;;2587422;22;20195;-61
2023/09/18 03:53:16;;;;;;;2.70;2.50;;;;;24.20;99292.00;;;;2575338;23;20200;-60
2023/09/18 03:54:16;;;;;;;2.77;2.57;;;;;24.20;99299.00;;;;2564599;23;20201;-61
2023/09/18 03:55:16;;;;;;;2.67;2.47;;;;;24.20;99308.00;;;;2576269;23;20188;-62
2023/09/18 03:56:17;;;;;;;2.47;2.27;;;;;24.20;99304.00;;;;2563077;23;20215;-61
2023/09/18 03:57:17;;;;;;;2.70;2.50;;;;;24.20;99296.00;;;;2574233;23;20199;-61
2023/09/18 03:58:18;;;;;;;2.40;2.20;;;;;24.20;99296.00;;;;2591434;22;20198;-62
2023/09/18 03:59:18;;;;;;;2.43;2.23;;;;;24.20;99295.00;;;;2589986;22;20227;-60
2023/09/18 04:00:18;;;;;;;2.90;2.57;;;;;24.20;99292.00;;;;2591967;22;20203;-61
2023/09/18 04:01:19;;;;;;;3.03;2.80;;;;;24.20;99288.00;;;;2550523;23;20200;-60
2023/09/18 04:02:21;;;;;;;2.40;2.20;;;;;24.20;99274.00;;;;2565882;23;20196;-60
2023/09/18 04:03:21;;;;;;;3.03;2.72;;;;;24.20;99278.00;;;;2575909;22;20717;-61
2023/09/18 04:04:22;;;;;;;2.53;2.33;;;;;24.20;99264.00;;;;2575961;22;20200;-61
2023/09/18 04:05:22;;;;;;;2.50;2.30;;;;;24.20;99273.00;;;;2591313;22;20650;-61
2023/09/18 04:06:24;;;;;;;2.90;2.70;;;;;24.20;99268.00;;;;2573960;22;20652;-60
2023/09/18 04:07:24;;;;;;;2.72;2.53;;;;;24.20;99260.00;;;;2591293;22;20203;-62
2023/09/18 04:08:24;;;;;;;3.13;2.60;;;;;24.20;99266.00;;;;2590868;22;20202;-60
2023/09/18 04:09:25;;;;;;;2.77;2.57;;;;;24.20;99262.00;;;;2590550;22;20195;-60
2023/09/18 04:10:26;;;;;;;2.53;2.33;;;;;24.20;99256.00;;;;2577968;23;20196;-61
2023/09/18 04:11:26;;;;;;;2.60;2.40;;;;;24.20;99256.00;;;;2551137;23;20529;-62
2023/09/18 04:12:26;;;;;;;2.53;2.33;;;;;24.20;99256.00;;;;2578081;23;20200;-61
2023/09/18 04:13:27;;;;;;;2.50;2.30;;;;;24.20;99257.00;;;;2578519;23;20677;-61
2023/09/18 04:14:27;;;;;;;2.50;2.30;;;;;24.20;99258.00;;;;2591448;22;20195;-61
2023/09/18 04:15:30;;;;;;;3.50;2.70;;;;;24.20;99264.00;;;;2589844;22;20427;-61
2023/09/18 04:16:30;;;;;;;2.80;2.60;;;;;24.20;99265.00;;;;2576208;22;20274;-61
2023/09/18 04:17:31;;;;;;;2.40;2.20;;;;;24.20;99342.00;;;;2585154;22;20669;-62
2023/09/18 04:18:31;;;;;;;2.47;2.27;;;;;24.20;99263.00;;;;2589524;22;20536;-60
2023/09/18 04:19:32;;;;;;;2.77;2.57;;;;;24.20;99267.00;;;;2583673;22;20541;-60
2023/09/18 04:20:32;;;;;;;2.57;2.37;;;;;24.20;99260.00;;;;2589960;22;20207;-61
2023/09/18 04:21:32;;;;;;;2.23;2.03;;;;;24.20;99263.00;;;;2575779;22;20984;-62
2023/09/18 04:22:33;;;;;;;2.57;2.37;;;;;24.20;99275.00;;;;2587720;22;20196;-62
2023/09/18 04:23:34;;;;;;;3.20;2.70;;;;;24.20;99212.00;;;;2591114;22;20200;-61
2023/09/18 04:24:34;;;;;;;2.58;2.38;;;;;24.20;99264.00;;;;2574268;23;20267;-61
2023/09/18 04:25:35;;;;;;;3.40;3.10;;;;;24.20;99270.00;;;;2564359;23;20794;-61
2023/09/18 04:26:35;;;;;;;2.70;2.50;;;;;24.20;99270.00;;;;2550720;23;20220;-61
2023/09/18 04:27:35;;;;;;;3.90;2.60;;;;;24.20;99267.00;;;;2576598;23;20207;-60
2023/09/18 04:28:36;;;;;;;3.13;2.47;;;;;24.20;99267.00;;;;2576251;23;20196;-60
2023/09/18 04:29:36;;;;;;;3.00;2.80;;;;;24.20;99271.00;;;;2577437;23;20245;-61
2023/09/18 04:30:37;;;;;;;2.50;2.30;;;;;24.20;99274.00;;;;2576135;23;20188;-62
2023/09/18 04:31:38;;;;;;;2.90;2.70;;;;;24.20;99282.00;;;;2551105;23;20207;-61
2023/09/18 04:32:38;;;;;;;3.00;2.70;;;;;24.20;99279.00;;;;2578361;22;20318;-61
2023/09/18 04:33:38;;;;;;;2.40;2.20;;;;;24.20;99280.00;;;;2588587;22;21126;-61
2023/09/18 04:34:39;;;;;;;2.27;2.07;;;;;24.20;99278.00;;;;2591777;22;20209;-61
2023/09/18 04:35:39;;;;;;;3.23;2.53;;;;;24.20;99274.00;;;;2591275;22;20200;-61
2023/09/18 04:36:40;;;;;;;3.00;2.40;;;;;24.20;99285.00;;;;2573894;22;20195;-61
2023/09/18 04:37:40;;;;;;;2.33;2.13;;;;;24.20;99283.00;;;;2576292;23;20730;-60
2023/09/18 04:38:40;;;;;;;2.50;2.30;;;;;24.20;99285.00;;;;2562202;23;20192;-60
2023/09/18 04:39:41;;;;;;;3.07;2.40;;;;;24.20;99280.00;;;;2589614;22;20191;-61
2023/09/18 04:40:41;;;;;;;2.87;2.67;;;;;24.20;99286.00;;;;2590917;22;20200;-62
2023/09/18 04:41:41;;;;;;;2.77;2.57;;;;;24.20;99280.00;;;;2576837;22;20199;-61
2023/09/18 04:42:42;;;;;;;3.20;2.57;;;;;24.20;99273.00;;;;2571863;23;20808;-61
2023/09/18 04:43:43;;;;;;;2.43;2.23;;;;;24.20;99277.00;;;;2578418;22;20503;-60
2023/09/18 04:44:43;;;;;;;2.60;2.30;;;;;24.20;99275.00;;;;2591190;22;20422;-61
2023/09/18 04:45:44;;;;;;;2.47;2.27;;;;;24.20;99270.00;;;;2583514;22;20198;-61
2023/09/18 04:46:44;;;;;;;2.30;2.10;;;;;23.50;99277.00;;;;2563197;23;21062;-61
2023/09/18 04:47:45;;;;;;;2.77;2.40;;;;;24.20;99266.00;;;;2577670;23;20258;-61
2023/09/18 04:48:45;;;;;;;2.70;2.50;;;;;24.20;99299.00;;;;2563070;23;20226;-61
2023/09/18 04:49:47;;;;;;;2.30;2.10;;;;;24.20;99272.00;;;;2562719;23;20658;-61
2023/09/18 04:50:48;;;;;;;2.40;2.20;;;;;24.20;99279.00;;;;2590473;22;20199;-61
2023/09/18 04:51:48;;;;;;;2.43;2.23;;;;;24.20;99278.00;;;;2576448;22;20196;-61
2023/09/18 04:52:50;;;;;;;2.50;2.30;;;;;24.20;99268.00;;;;2578378;23;20423;-61
2023/09/18 04:53:51;;;;;;;3.50;2.97;;;;;24.20;99278.00;;;;2577941;22;20270;-60
2023/09/18 04:54:53;;;;;;;2.40;2.20;;;;;24.20;99283.00;;;;2589554;22;20675;-63
2023/09/18 04:55:54;;;;;;;3.03;2.72;;;;;24.20;99285.00;;;;2573465;22;20257;-63
2023/09/18 04:56:54;;;;;;;2.90;2.57;;;;;24.20;99288.00;;;;2576378;23;20979;-61
2023/09/18 04:57:55;;;;;;;2.70;2.50;;;;;24.20;99290.00;;;;2574281;23;20214;-61
2023/09/18 04:58:55;;;;;;;1.77;1.67;;;;;24.20;99285.00;;;;2588033;22;20222;-60
2023/09/18 04:59:55;;;;;;;2.30;2.10;;;;;24.20;99294.00;;;;2577980;23;20192;-60
2023/09/18 05:00:56;;;;;;;2.23;2.03;;;;;24.20;99304.00;;;;2557713;23;20192;-61
2023/09/18 05:01:57;;;;;;;2.50;2.30;;;;;24.20;99307.00;;;;2587703;22;20184;-61
2023/09/18 05:03:00;;;;;;;2.60;1.80;;;;;24.20;99327.00;;;;2588174;22;20198;-63
2023/09/18 05:04:00;;;;;;;2.30;2.10;;;;;24.20;99314.00;;;;2591363;22;20222;-61
2023/09/18 05:05:03;;;;;;;2.73;2.53;;;;;24.20;99298.00;;;;2577779;23;20200;-62